PKWA

Bucholz AAF(Kwajalein Kmr)(Atoll) Airport

Kwajalein, , Marshall Islands
PKWA 212338Z 2200/2224 07017G24KT P6SM FEW018 SCT040
Issued Valid From Valid To
Jan-21 @ 23:38 UTC
(an hour ago)
Jan-22 @ 00:00 UTC
(42 minutes ago)
Jan-23 @ 00:00 UTC
(in 23 hours)
Jan-22 @ 00:00 to Jan-23 @ 00:00
PKWA 212338Z 2200/2224 07017G24KT P6SM FEW018 SCT040
Wind Visibility Clouds
70° at 17 knots
 Gusting to 24 knots
10,000+ meters
  • Few at 1,800' AGL
  • Scattered at 4,000' AGL
PKWA 212338Z 2200/2224 07017G24KT P6SM FEW018 SCT040
Issued Jan-21 @ 23:38 UTC
(an hour ago)
Valid From Jan-22 @ 00:00 UTC
(42 minutes ago)
Valid To Jan-23 @ 00:00 UTC
(in 23 hours)
Jan-22 @ 00:00 - Jan-23 @ 00:00
Wind Visibility
70° at 17 knots
 Gusting to 24 knots
10,000+ meters
Clouds
  • Few at 1,800' AGL
  • Scattered at 4,000' AGL